createdAt,value
2023-04-03T00:01:56.630Z,95774
2023-04-03T00:05:21.912Z,95769
2023-04-03T00:08:47.188Z,95775
2023-04-03T00:12:12.433Z,95775
2023-04-03T00:15:37.716Z,95776
2023-04-03T00:19:02.987Z,95776
2023-04-03T00:22:28.284Z,95775
2023-04-03T00:25:53.616Z,95776
2023-04-03T00:29:18.895Z,95782
2023-04-03T00:32:44.223Z,95782
2023-04-03T00:36:09.538Z,95780
2023-04-03T00:39:34.744Z,95784
2023-04-03T00:43:00.018Z,95786
2023-04-03T00:46:25.338Z,95789
2023-04-03T00:49:50.614Z,95783
2023-04-03T00:53:15.874Z,95782
2023-04-03T00:56:41.160Z,95783
2023-04-03T01:00:06.438Z,95790
2023-04-03T01:03:31.707Z,95787
2023-04-03T01:06:57.002Z,95794
2023-04-03T01:10:22.265Z,95792
2023-04-03T01:13:47.599Z,95796
2023-04-03T01:17:12.886Z,95793
2023-04-03T01:20:38.673Z,95794
2023-04-03T01:24:03.523Z,95796
2023-04-03T01:27:29.555Z,95795
2023-04-03T01:30:54.841Z,95801
2023-04-03T01:34:20.176Z,95804
2023-04-03T01:37:45.477Z,95807
2023-04-03T01:41:10.810Z,95804
2023-04-03T01:44:36.068Z,95807
2023-04-03T01:48:01.345Z,95810
2023-04-03T01:51:26.626Z,95812
2023-04-03T01:54:52.012Z,95812
2023-04-03T01:58:17.355Z,95811
2023-04-03T02:01:42.639Z,95810
2023-04-03T02:05:07.918Z,95813
2023-04-03T02:08:33.233Z,95816
2023-04-03T02:11:58.532Z,95817
2023-04-03T02:15:23.860Z,95816
2023-04-03T02:18:50.499Z,95814
2023-04-03T02:22:15.840Z,95809
2023-04-03T02:25:41.140Z,95814
2023-04-03T02:29:06.409Z,95820
2023-04-03T02:32:31.709Z,95813
2023-04-03T02:35:57.012Z,95815
2023-04-03T02:39:22.336Z,95814
2023-04-03T02:42:47.647Z,95818
2023-04-03T02:46:13.013Z,95822
2023-04-03T02:49:38.285Z,95823
2023-04-03T02:53:03.508Z,95819
2023-04-03T02:56:28.836Z,95821
2023-04-03T02:59:54.160Z,95818
2023-04-03T03:03:19.456Z,95821
2023-04-03T03:06:44.990Z,95828
2023-04-03T03:10:10.033Z,95829
2023-04-03T03:13:35.365Z,95826
2023-04-03T03:17:00.674Z,95831
2023-04-03T03:20:26.190Z,95833
2023-04-03T03:23:51.487Z,95831
2023-04-03T03:27:16.818Z,95833
2023-04-03T03:30:42.126Z,95838
2023-04-03T03:34:07.449Z,95834
2023-04-03T03:37:32.756Z,95841
2023-04-03T03:40:58.078Z,95845
2023-04-03T03:44:23.386Z,95847
2023-04-03T03:47:48.711Z,95846
2023-04-03T03:51:13.970Z,95846
2023-04-03T03:54:39.282Z,95840
2023-04-03T03:58:04.631Z,95849
2023-04-03T04:01:29.908Z,95848
2023-04-03T04:04:55.273Z,95849
2023-04-03T04:08:20.608Z,95850
2023-04-03T04:11:45.899Z,95852
2023-04-03T04:15:11.207Z,95845
2023-04-03T04:18:36.496Z,95849
2023-04-03T04:22:01.886Z,95855
2023-04-03T04:25:27.186Z,95851
2023-04-03T04:28:52.489Z,95852
2023-04-03T04:32:17.708Z,95863
2023-04-03T04:35:42.978Z,95863
2023-04-03T04:39:08.043Z,95870
2023-04-03T04:42:33.226Z,95869
2023-04-03T04:45:58.437Z,95873
2023-04-03T04:49:23.604Z,95873
2023-04-03T04:52:48.767Z,95875
2023-04-03T04:56:13.947Z,95873
2023-04-03T04:59:39.119Z,95869
2023-04-03T05:03:04.329Z,95873
2023-04-03T05:06:29.506Z,95876
2023-04-03T05:09:54.676Z,95879
2023-04-03T05:13:19.839Z,95885
2023-04-03T05:16:45.048Z,95887
2023-04-03T05:20:10.219Z,95892
2023-04-03T05:23:35.426Z,95896
2023-04-03T05:27:00.593Z,95898
2023-04-03T05:30:25.787Z,95899
2023-04-03T05:33:50.967Z,95890
2023-04-03T05:37:16.140Z,95899
2023-04-03T05:40:41.362Z,95900
2023-04-03T05:44:06.539Z,95906
2023-04-03T05:47:31.749Z,95915
2023-04-03T05:50:57.195Z,95913
2023-04-03T05:54:22.174Z,95922
2023-04-03T05:57:47.361Z,95919
2023-04-03T06:01:12.557Z,95924
2023-04-03T06:04:37.889Z,95919
2023-04-03T06:08:03.004Z,95928
2023-04-03T06:11:28.193Z,95924
2023-04-03T06:14:53.900Z,95922
2023-04-03T06:18:19.101Z,95926
2023-04-03T06:21:44.320Z,95927
2023-04-03T06:25:09.507Z,95929
2023-04-03T06:28:34.714Z,95929
2023-04-03T06:31:59.925Z,95932
2023-04-03T06:35:25.299Z,95933
2023-04-03T06:38:50.477Z,95942
2023-04-03T06:42:15.656Z,95938
2023-04-03T06:45:40.933Z,95939
2023-04-03T06:49:06.141Z,95946
2023-04-03T06:52:31.306Z,95943
2023-04-03T06:55:56.504Z,95951
2023-04-03T06:59:21.684Z,95951
2023-04-03T07:02:46.861Z,95955
2023-04-03T07:06:12.053Z,95962
2023-04-03T07:09:37.345Z,95963
2023-04-03T07:13:04.825Z,95968
2023-04-03T07:16:30.348Z,95978
2023-04-03T07:19:56.057Z,95982
2023-04-03T07:23:21.310Z,95988
2023-04-03T07:26:46.494Z,95993
2023-04-03T07:30:16.162Z,95991
2023-04-03T07:33:41.892Z,95995
2023-04-03T07:37:08.149Z,95999
2023-04-03T07:40:33.505Z,96002
2023-04-03T07:43:58.686Z,95999
2023-04-03T07:47:23.845Z,96001
2023-04-03T07:50:49.020Z,95996
2023-04-03T07:54:14.240Z,95998
2023-04-03T07:57:39.482Z,96008
2023-04-03T08:01:04.732Z,95999
2023-04-03T08:04:30.082Z,96009
2023-04-03T08:07:55.310Z,96015
2023-04-03T08:11:20.654Z,96018
2023-04-03T08:14:46.061Z,96015
2023-04-03T08:18:11.140Z,96025
2023-04-03T08:21:36.372Z,96030
2023-04-03T08:25:01.641Z,96032
2023-04-03T08:28:26.952Z,96036
2023-04-03T08:31:52.278Z,96037
2023-04-03T08:35:17.408Z,96041
2023-04-03T08:38:42.667Z,96048
2023-04-03T08:42:07.983Z,96043
2023-04-03T08:45:33.269Z,96044
2023-04-03T08:48:58.702Z,96049
2023-04-03T08:52:23.932Z,96052
2023-04-03T08:55:49.284Z,96053
2023-04-03T08:59:14.618Z,96060
2023-04-03T09:02:39.915Z,96060
2023-04-03T09:06:05.323Z,96063
2023-04-03T09:09:30.440Z,96071
2023-04-03T09:12:56.020Z,96075
2023-04-03T09:16:21.404Z,96072
2023-04-03T09:19:46.773Z,96070
2023-04-03T09:23:12.245Z,96069
2023-04-03T09:26:37.449Z,96073
2023-04-03T09:30:02.803Z,96066
2023-04-03T09:33:28.110Z,96064
2023-04-03T09:36:53.395Z,96069
2023-04-03T09:40:18.964Z,96064
2023-04-03T09:43:44.071Z,96059
2023-04-03T09:47:09.391Z,96061
2023-04-03T09:50:34.670Z,96066
2023-04-03T09:54:00.081Z,96061
2023-04-03T09:57:25.504Z,96054
2023-04-03T10:00:50.697Z,96049
2023-04-03T10:04:16.538Z,96064
2023-04-03T10:07:46.482Z,96065
2023-04-03T10:11:07.455Z,96061
2023-04-03T10:14:32.849Z,96064
2023-04-03T10:17:58.030Z,96055
2023-04-03T10:21:27.328Z,96058
2023-04-03T10:24:48.533Z,96054
2023-04-03T10:28:13.848Z,96045
2023-04-03T10:31:39.283Z,96043
2023-04-03T10:35:05.259Z,96034
2023-04-03T10:38:29.658Z,96034
2023-04-03T10:42:00.838Z,96026
2023-04-03T10:45:20.151Z,96016
2023-04-03T10:48:45.555Z,96022
2023-04-03T10:52:10.700Z,96022
2023-04-03T10:55:36.005Z,96016
2023-04-03T10:59:01.317Z,95997
2023-04-03T11:02:28.663Z,96003
2023-04-03T11:05:52.004Z,95999
2023-04-03T11:09:17.189Z,96002
2023-04-03T11:12:42.631Z,95997
2023-04-03T11:16:08.118Z,95999
2023-04-03T11:19:33.607Z,95988
2023-04-03T11:22:59.149Z,95991
2023-04-03T11:26:24.481Z,95989
2023-04-03T11:29:50.010Z,96001
2023-04-03T11:33:15.536Z,95993
2023-04-03T11:36:40.964Z,96000
2023-04-03T11:40:06.583Z,95991
2023-04-03T11:43:31.946Z,95998
2023-04-03T11:46:58.010Z,95984
2023-04-03T11:50:23.077Z,95990
2023-04-03T11:53:48.902Z,95994
2023-04-03T11:57:14.733Z,95982
2023-04-03T12:00:40.386Z,95986
2023-04-03T12:04:06.123Z,95980
2023-04-03T12:07:31.630Z,95982
2023-04-03T12:10:57.546Z,95979
2023-04-03T12:14:23.294Z,95976
2023-04-03T12:17:48.648Z,95964
2023-04-03T12:21:14.120Z,95957
2023-04-03T12:24:39.584Z,95961
2023-04-03T12:28:05.103Z,95955
2023-04-03T12:31:30.667Z,95949
2023-04-03T12:34:56.020Z,95952
2023-04-03T12:38:21.578Z,95949
2023-04-03T12:41:47.687Z,95952
2023-04-03T12:45:13.187Z,95948
2023-04-03T12:48:39.149Z,95943
2023-04-03T12:52:04.576Z,95946
2023-04-03T12:55:30.351Z,95936
2023-04-03T12:58:56.058Z,95942
2023-04-03T13:02:21.727Z,95943
2023-04-03T13:05:47.635Z,95951
2023-04-03T13:09:12.997Z,95939
2023-04-03T13:12:38.554Z,95939
2023-04-03T13:16:04.179Z,95931
2023-04-03T13:19:30.068Z,95934
2023-04-03T13:22:55.433Z,95930
2023-04-03T13:26:21.071Z,95924
2023-04-03T13:29:46.599Z,95930
2023-04-03T13:33:12.062Z,95926
2023-04-03T13:36:37.496Z,95925
2023-04-03T13:40:02.986Z,95919
2023-04-03T13:43:28.365Z,95922
2023-04-03T13:46:53.773Z,95930
2023-04-03T13:50:19.280Z,95931
2023-04-03T13:53:44.785Z,95929
2023-04-03T13:57:10.934Z,95922
2023-04-03T14:00:36.289Z,95925
2023-04-03T14:04:01.597Z,95915
2023-04-03T14:07:26.877Z,95922
2023-04-03T14:10:52.254Z,95910
2023-04-03T14:14:17.643Z,95920
2023-04-03T14:17:43.166Z,95922
2023-04-03T14:21:08.512Z,95925
2023-04-03T14:24:33.809Z,95924
2023-04-03T14:27:59.123Z,95917
2023-04-03T14:31:24.517Z,95912
2023-04-03T14:34:49.724Z,95918
2023-04-03T14:38:15.010Z,95915
2023-04-03T14:41:40.280Z,95914
2023-04-03T14:45:05.542Z,95921
2023-04-03T14:48:30.958Z,95920
2023-04-03T14:51:56.202Z,95919
2023-04-03T14:55:21.484Z,95903
2023-04-03T14:58:46.794Z,95899
2023-04-03T15:02:12.104Z,95909
2023-04-03T15:05:37.580Z,95908
2023-04-03T15:41:25.603Z,95916
2023-04-03T15:44:50.916Z,95918
2023-04-03T15:48:16.172Z,95910
2023-04-03T15:51:41.437Z,95907
2023-04-03T15:55:06.669Z,95906
2023-04-03T15:58:31.947Z,95906
2023-04-03T16:01:57.281Z,95911
2023-04-03T16:05:22.478Z,95908
2023-04-03T16:08:47.726Z,95910
2023-04-03T16:12:12.959Z,95915
2023-04-03T16:15:38.299Z,95909
2023-04-03T16:19:03.468Z,95919
2023-04-03T16:22:28.685Z,95920
2023-04-03T16:25:53.900Z,95919
2023-04-03T16:29:19.193Z,95921
2023-04-03T16:32:44.509Z,95910
2023-04-03T16:36:09.717Z,95913
2023-04-03T16:39:35.057Z,95909
2023-04-03T16:43:00.320Z,95907
2023-04-03T16:46:25.632Z,95907
2023-04-03T16:49:50.981Z,95912
2023-04-03T16:53:16.464Z,95910
2023-04-03T16:56:41.744Z,95915
2023-04-03T17:00:07.023Z,95915
2023-04-03T17:03:32.256Z,95917
2023-04-03T17:06:57.559Z,95918
2023-04-03T17:10:22.772Z,95919
2023-04-03T17:13:48.077Z,95917
2023-04-03T17:17:13.318Z,95918
2023-04-03T17:20:38.561Z,95915
2023-04-03T17:24:03.828Z,95917
2023-04-03T17:27:29.057Z,95923
2023-04-03T17:30:54.417Z,95928
2023-04-03T17:34:19.993Z,95930
2023-04-03T17:37:45.572Z,95929
2023-04-03T17:41:11.237Z,95932
2023-04-03T17:44:36.790Z,95936
2023-04-03T17:48:02.368Z,95937
2023-04-03T17:51:27.920Z,95934
2023-04-03T17:54:53.548Z,95931
2023-04-03T17:58:19.189Z,95932
2023-04-03T18:01:44.738Z,95938
2023-04-03T18:05:10.277Z,95941
2023-04-03T18:08:35.851Z,95943
2023-04-03T18:12:01.489Z,95940
2023-04-03T18:15:27.107Z,95947
2023-04-03T18:19:02.424Z,95950
2023-04-03T18:22:18.644Z,95953
2023-04-03T18:25:48.876Z,95951
2023-04-03T18:29:14.311Z,95957
2023-04-03T18:32:40.115Z,95951
2023-04-03T18:36:06.803Z,95951
2023-04-03T18:39:32.032Z,95954
2023-04-03T18:42:57.373Z,95951
2023-04-03T18:46:22.712Z,95954
2023-04-03T18:49:47.973Z,95950
2023-04-03T18:53:14.121Z,95951
2023-04-03T18:56:39.868Z,95958
2023-04-03T19:00:05.178Z,95956
2023-04-03T19:03:30.571Z,95956
2023-04-03T19:06:55.817Z,95961
2023-04-03T19:10:21.080Z,95970
2023-04-03T19:13:57.684Z,95975
2023-04-03T19:17:11.636Z,95972
2023-04-03T19:20:36.892Z,95973
2023-04-03T19:24:02.212Z,95970
2023-04-03T19:27:27.513Z,95965
2023-04-03T19:30:52.810Z,95969
2023-04-03T19:34:18.107Z,95969
2023-04-03T19:37:43.387Z,95966
2023-04-03T19:41:08.682Z,95967
2023-04-03T19:44:33.905Z,95967
2023-04-03T19:47:59.284Z,95966
2023-04-03T19:51:24.456Z,95968
2023-04-03T19:54:51.671Z,95969
2023-04-03T19:58:15.070Z,95970
2023-04-03T20:01:40.360Z,95970
2023-04-03T20:05:05.635Z,95973
2023-04-03T20:08:30.907Z,95973
2023-04-03T20:11:56.309Z,95972
2023-04-03T20:15:21.743Z,95975
2023-04-03T20:18:47.430Z,95974
2023-04-03T20:22:12.254Z,95980
2023-04-03T20:29:02.919Z,95971
2023-04-03T20:32:28.345Z,95968
2023-04-03T20:35:53.654Z,95966
2023-04-03T20:39:19.200Z,95965
2023-04-03T20:42:44.282Z,95969
2023-04-03T20:46:09.607Z,95965
2023-04-03T20:49:34.933Z,95963
2023-04-03T20:53:00.236Z,95969
2023-04-03T20:56:25.541Z,95961
2023-04-03T20:59:50.861Z,95957
2023-04-03T21:03:16.209Z,95961
2023-04-03T21:06:41.474Z,95957
2023-04-03T21:10:06.778Z,95954
2023-04-03T21:13:32.107Z,95958
2023-04-03T21:16:57.643Z,95951
2023-04-03T21:20:22.709Z,95954
2023-04-03T21:23:48.072Z,95948
2023-04-03T21:27:13.389Z,95946
2023-04-03T21:30:38.697Z,95946
2023-04-03T21:34:03.999Z,95946
2023-04-03T21:37:29.305Z,95946
2023-04-03T21:40:54.688Z,95942
2023-04-03T21:44:19.993Z,95939
2023-04-03T21:47:45.353Z,95947
2023-04-03T21:51:10.603Z,95941
2023-04-03T21:54:35.937Z,95938
2023-04-03T21:58:01.288Z,95940
2023-04-03T22:01:26.586Z,95934
2023-04-03T22:04:51.901Z,95933
2023-04-03T22:08:17.240Z,95930
2023-04-03T22:11:42.589Z,95932
2023-04-03T22:15:07.970Z,95929
2023-04-03T22:18:33.327Z,95931
2023-04-03T22:21:58.721Z,95929
2023-04-03T22:25:24.048Z,95923
2023-04-03T22:28:49.425Z,95927
2023-04-03T22:32:14.834Z,95935
2023-04-03T22:35:40.091Z,95931
2023-04-03T22:39:06.995Z,95928
2023-04-03T22:42:30.729Z,95934
2023-04-03T22:45:56.101Z,95924
2023-04-03T22:49:21.417Z,95925
2023-04-03T22:52:46.720Z,95926
2023-04-03T22:56:12.078Z,95927
2023-04-03T22:59:37.364Z,95916
2023-04-03T23:03:02.761Z,95916
2023-04-03T23:06:28.078Z,95911
2023-04-03T23:09:53.377Z,95917
2023-04-03T23:13:18.678Z,95920
2023-04-03T23:16:44.019Z,95916
2023-04-03T23:20:09.318Z,95923
2023-04-03T23:23:34.674Z,95920
2023-04-03T23:26:59.974Z,95918
2023-04-03T23:30:25.259Z,95917
2023-04-03T23:33:50.546Z,95908
2023-04-03T23:37:15.832Z,95913
2023-04-03T23:40:41.273Z,95910
2023-04-03T23:44:06.428Z,95912
2023-04-03T23:47:31.732Z,95909
2023-04-03T23:50:57.021Z,95911
2023-04-03T23:54:22.324Z,95910
2023-04-03T23:57:47.649Z,95900
